PWSweather.com
Personal Weather Stations
Station Observations

SkegnessGB

Lat: 53.147585, Lon: 0.345774

Elevation: 18

Station Type: Fine Offset WH3080

http://www.skegnessweather.info/

High Low Average
Temperature 63.1°F17.3°C 46.8°F8.2°C 55.9°F13.3°C
Dew Point 56.9°F13.8°C 46.0°F7.8°C 51.0°F10.6°C
Winds 18.6 mph 29.9 kmh 2.1 mph 3.4 kmh 9.0 mph SW14.5 kmh SW
Wind Gusts 25.8 mph41.5 kmh 2.5 mph4.0 kmh 12.0 mph19.3 kmh
Humidity 100% 64% 84%
Pressure 29.50 in999.0 mb 29.06 in984.1 mb -
Precipitation 0.06 in1.5 mm - -
Hour Temp Dew Point Humidity Winds Wind Gusts Pressure Precip Precip Rate Daily Precip Total
12:00 AM 55.4°F13.0°C 55.4°F13.0°C 100% 16.7 mph SSW26.9 kmh SSW 22.6 mph36.4 kmh 29.20 in988.8 mb 0.00 in0.0 mm 0.00 in0.0 mm 0.00 in0.0 mm
12:10 AM 55.6°F13.1°C 55.6°F13.1°C 100% 15.8 mph SW25.4 kmh SW 15.0 mph24.1 kmh 29.19 in988.5 mb 0.00 in0.0 mm 0.00 in0.0 mm 0.00 in0.0 mm
12:20 AM 55.9°F13.3°C 56.0°F13.3°C 100% 15.2 mph S24.5 kmh S 16.0 mph25.7 kmh 29.18 in988.1 mb 0.00 in0.0 mm 0.00 in0.0 mm 0.00 in0.0 mm
12:30 AM 56.3°F13.5°C 56.3°F13.5°C 100% 18.6 mph S29.9 kmh S 25.1 mph40.4 kmh 29.16 in987.5 mb 0.00 in0.0 mm 0.00 in0.0 mm 0.00 in0.0 mm
12:40 AM 56.3°F13.5°C 56.3°F13.5°C 100% 17.5 mph SSW28.2 kmh SSW 20.2 mph32.5 kmh 29.15 in987.1 mb 0.00 in0.0 mm 0.00 in0.0 mm 0.00 in0.0 mm
12:50 AM 56.3°F13.5°C 56.3°F13.5°C 100% 13.7 mph SSW22.0 kmh SSW 16.7 mph26.9 kmh 29.15 in987.1 mb 0.00 in0.0 mm 0.00 in0.0 mm 0.00 in0.0 mm
01:00 AM 56.3°F13.5°C 56.3°F13.5°C 100% 12.8 mph SW20.6 kmh SW 16.0 mph25.7 kmh 29.14 in986.8 mb 0.00 in0.0 mm 0.00 in0.0 mm 0.00 in0.0 mm
01:10 AM 56.3°F13.5°C 56.3°F13.5°C 100% 13.3 mph S21.4 kmh S 20.2 mph32.5 kmh 29.14 in986.8 mb 0.00 in0.0 mm 0.00 in0.0 mm 0.00 in0.0 mm
01:20 AM 56.3°F13.5°C 56.3°F13.5°C 100% 13.4 mph SE21.6 kmh SE 15.0 mph24.1 kmh 29.13 in986.5 mb 0.00 in0.0 mm 0.00 in0.0 mm 0.00 in0.0 mm
01:30 AM 56.3°F13.5°C 56.3°F13.5°C 100% 11.9 mph S19.2 kmh S 15.0 mph24.1 kmh 29.13 in986.5 mb 0.00 in0.0 mm 0.00 in0.0 mm 0.00 in0.0 mm
01:40 AM 56.3°F13.5°C 56.3°F13.5°C 100% 12.2 mph SSE19.6 kmh SSE 13.3 mph21.4 kmh 29.11 in985.8 mb 0.00 in0.0 mm 0.00 in0.0 mm 0.00 in0.0 mm
01:50 AM 56.5°F13.6°C 56.5°F13.6°C 100% 12.1 mph SSW19.5 kmh SSW 18.5 mph29.8 kmh 29.11 in985.8 mb 0.00 in0.0 mm 0.00 in0.0 mm 0.00 in0.0 mm
02:00 AM 56.8°F13.8°C 56.9°F13.8°C 100% 10.8 mph S17.4 kmh S 17.5 mph28.2 kmh 29.10 in985.4 mb 0.00 in0.0 mm 0.00 in0.0 mm 0.00 in0.0 mm
02:10 AM 56.8°F13.8°C 56.9°F13.8°C 100% 8.4 mph S13.5 kmh S 10.8 mph17.4 kmh 29.09 in985.1 mb 0.00 in0.0 mm 0.00 in0.0 mm 0.00 in0.0 mm
02:20 AM 56.5°F13.6°C 56.5°F13.6°C 100% 10.5 mph SW16.9 kmh SW 16.0 mph25.7 kmh 29.09 in985.1 mb 0.00 in0.0 mm 0.00 in0.0 mm 0.00 in0.0 mm
02:30 AM 56.3°F13.5°C 56.3°F13.5°C 100% 10.5 mph SE16.9 kmh SE 12.5 mph20.1 kmh 29.08 in984.8 mb 0.00 in0.0 mm 0.00 in0.0 mm 0.00 in0.0 mm
02:40 AM 56.1°F13.4°C 55.9°F13.3°C 99% 12.0 mph SSW19.3 kmh SSW 13.3 mph21.4 kmh 29.09 in985.1 mb 0.00 in0.0 mm 0.00 in0.0 mm 0.00 in0.0 mm
02:50 AM 56.1°F13.4°C 55.9°F13.3°C 99% 11.0 mph SW17.7 kmh SW 15.0 mph24.1 kmh 29.08 in984.8 mb 0.00 in0.0 mm 0.00 in0.0 mm 0.00 in0.0 mm
03:00 AM 56.3°F13.5°C 55.8°F13.2°C 98% 11.1 mph SSW17.9 kmh SSW 15.0 mph24.1 kmh 29.08 in984.8 mb 0.00 in0.0 mm 0.00 in0.0 mm 0.00 in0.0 mm
03:10 AM 56.1°F13.4°C 56.1°F13.4°C 100% 11.9 mph SW19.2 kmh SW 14.3 mph23.0 kmh 29.07 in984.4 mb 0.01 in0.3 mm 0.06 in1.5 mm 0.01 in0.3 mm
03:20 AM 55.9°F13.3°C 56.0°F13.3°C 100% 9.1 mph SW14.6 kmh SW 15.0 mph24.1 kmh 29.06 in984.1 mb 0.01 in0.3 mm 0.00 in0.0 mm 0.01 in0.3 mm
03:30 AM 56.3°F13.5°C 56.3°F13.5°C 100% 14.7 mph SW23.7 kmh SW 20.9 mph33.6 kmh 29.06 in984.1 mb 0.01 in0.3 mm 0.00 in0.0 mm 0.01 in0.3 mm
03:40 AM 56.7°F13.7°C 55.8°F13.2°C 97% 13.3 mph S21.4 kmh S 17.5 mph28.2 kmh 29.06 in984.1 mb 0.01 in0.3 mm 0.00 in0.0 mm 0.01 in0.3 mm
03:50 AM 57.0°F13.9°C 55.0°F12.8°C 93% 14.6 mph SW23.5 kmh SW 18.5 mph29.8 kmh 29.07 in984.4 mb 0.01 in0.3 mm 0.00 in0.0 mm 0.01 in0.3 mm
04:00 AM 56.7°F13.7°C 53.5°F11.9°C 89% 16.2 mph SW26.1 kmh SW 17.5 mph28.2 kmh 29.08 in984.8 mb 0.01 in0.3 mm 0.00 in0.0 mm 0.01 in0.3 mm
04:10 AM 55.9°F13.3°C 51.8°F11.0°C 86% 18.5 mph NE29.8 kmh NE 24.4 mph39.3 kmh 29.09 in985.1 mb 0.00 in0.0 mm 0.00 in0.0 mm 0.01 in0.3 mm
04:20 AM 55.4°F13.0°C 51.0°F10.6°C 85% 16.7 mph SW26.9 kmh SW 22.6 mph36.4 kmh 29.10 in985.4 mb 0.00 in0.0 mm 0.00 in0.0 mm 0.01 in0.3 mm
04:30 AM 55.0°F12.8°C 50.6°F10.3°C 85% 17.8 mph WSW28.6 kmh WSW 25.8 mph41.5 kmh 29.11 in985.8 mb 0.00 in0.0 mm 0.00 in0.0 mm 0.01 in0.3 mm
04:40 AM 55.0°F12.8°C 50.6°F10.3°C 85% 14.8 mph SSW23.8 kmh SSW 18.5 mph29.8 kmh 29.13 in986.5 mb 0.00 in0.0 mm 0.00 in0.0 mm 0.01 in0.3 mm
04:50 AM 55.0°F12.8°C 50.6°F10.3°C 85% 15.8 mph SSW25.4 kmh SSW 19.2 mph30.9 kmh 29.15 in987.1 mb 0.00 in0.0 mm 0.00 in0.0 mm 0.01 in0.3 mm
05:00 AM 54.9°F12.7°C 50.4°F10.2°C 85% 14.7 mph WSW23.7 kmh WSW 18.5 mph29.8 kmh 29.16 in987.5 mb 0.00 in0.0 mm 0.00 in0.0 mm 0.01 in0.3 mm
05:10 AM 54.3°F12.4°C 50.8°F10.4°C 88% 13.0 mph NW20.9 kmh NW 18.5 mph29.8 kmh 29.18 in988.1 mb 0.00 in0.0 mm 0.00 in0.0 mm 0.01 in0.3 mm
05:20 AM 54.1°F12.3°C 50.4°F10.2°C 87% 12.2 mph SW19.6 kmh SW 17.5 mph28.2 kmh 29.19 in988.5 mb 0.00 in0.0 mm 0.00 in0.0 mm 0.01 in0.3 mm
05:30 AM 54.0°F12.2°C 49.9°F9.9°C 86% 11.9 mph W19.2 kmh W 12.5 mph20.1 kmh 29.20 in988.8 mb 0.00 in0.0 mm 0.00 in0.0 mm 0.01 in0.3 mm
05:40 AM 53.6°F12.0°C 49.8°F9.9°C 87% 12.9 mph SSW20.8 kmh SSW 18.5 mph29.8 kmh 29.21 in989.2 mb 0.00 in0.0 mm 0.00 in0.0 mm 0.01 in0.3 mm
05:50 AM 53.6°F12.0°C 49.8°F9.9°C 87% 12.5 mph WSW20.1 kmh WSW 18.5 mph29.8 kmh 29.22 in989.5 mb 0.00 in0.0 mm 0.00 in0.0 mm 0.01 in0.3 mm
06:00 AM 53.6°F12.0°C 50.1°F10.1°C 88% 12.1 mph WSW19.5 kmh WSW 20.2 mph32.5 kmh 29.24 in990.2 mb 0.00 in0.0 mm 0.00 in0.0 mm 0.01 in0.3 mm
06:10 AM 53.6°F12.0°C 50.1°F10.1°C 88% 9.2 mph WSW14.8 kmh WSW 10.8 mph17.4 kmh 29.25 in990.5 mb 0.00 in0.0 mm 0.00 in0.0 mm 0.01 in0.3 mm
06:20 AM 53.6°F12.0°C 49.5°F9.7°C 86% 12.3 mph WSW19.8 kmh WSW 20.2 mph32.5 kmh 29.26 in990.9 mb 0.00 in0.0 mm 0.00 in0.0 mm 0.01 in0.3 mm
06:30 AM 53.6°F12.0°C 49.5°F9.7°C 86% 11.1 mph S17.9 kmh S 16.7 mph26.9 kmh 29.27 in991.2 mb 0.00 in0.0 mm 0.00 in0.0 mm 0.01 in0.3 mm
06:40 AM 53.6°F12.0°C 49.5°F9.7°C 86% 11.0 mph SW17.7 kmh SW 13.3 mph21.4 kmh 29.28 in991.5 mb 0.00 in0.0 mm 0.00 in0.0 mm 0.01 in0.3 mm
06:50 AM 53.6°F12.0°C 49.2°F9.6°C 85% 12.6 mph N20.3 kmh N 15.0 mph24.1 kmh 29.29 in991.9 mb 0.00 in0.0 mm 0.00 in0.0 mm 0.01 in0.3 mm
07:00 AM 53.6°F12.0°C 49.8°F9.9°C 87% 12.5 mph W20.1 kmh W 16.0 mph25.7 kmh 29.30 in992.2 mb 0.00 in0.0 mm 0.00 in0.0 mm 0.01 in0.3 mm
07:10 AM 53.8°F12.1°C 50.6°F10.3°C 89% 12.0 mph SW19.3 kmh SW 20.2 mph32.5 kmh 29.30 in992.2 mb 0.00 in0.0 mm 0.00 in0.0 mm 0.01 in0.3 mm
07:20 AM 54.1°F12.3°C 50.4°F10.2°C 87% 13.0 mph WNW20.9 kmh WNW 18.5 mph29.8 kmh 29.31 in992.6 mb 0.00 in0.0 mm 0.00 in0.0 mm 0.01 in0.3 mm
07:30 AM 54.1°F12.3°C 50.1°F10.1°C 86% 12.7 mph WSW20.4 kmh WSW 16.7 mph26.9 kmh 29.31 in992.6 mb 0.00 in0.0 mm 0.00 in0.0 mm 0.01 in0.3 mm
07:40 AM 54.1°F12.3°C 50.1°F10.1°C 86% 11.8 mph SW19.0 kmh SW 19.2 mph30.9 kmh 29.31 in992.6 mb 0.00 in0.0 mm 0.00 in0.0 mm 0.01 in0.3 mm
07:50 AM 54.3°F12.4°C 50.5°F10.3°C 87% 10.2 mph WSW16.4 kmh WSW 11.8 mph19.0 kmh 29.32 in992.9 mb 0.00 in0.0 mm 0.00 in0.0 mm 0.01 in0.3 mm
08:00 AM 54.5°F12.5°C 50.1°F10.1°C 85% 12.6 mph S20.3 kmh S 15.0 mph24.1 kmh 29.33 in993.2 mb 0.00 in0.0 mm 0.00 in0.0 mm 0.01 in0.3 mm
08:10 AM 54.7°F12.6°C 50.3°F10.2°C 85% 12.0 mph SSW19.3 kmh SSW 14.3 mph23.0 kmh 29.33 in993.2 mb 0.00 in0.0 mm 0.00 in0.0 mm 0.01 in0.3 mm
08:20 AM 54.9°F12.7°C 50.8°F10.4°C 86% 10.1 mph S16.3 kmh S 14.3 mph23.0 kmh 29.34 in993.6 mb 0.00 in0.0 mm 0.00 in0.0 mm 0.01 in0.3 mm
08:30 AM 55.6°F13.1°C 50.8°F10.4°C 84% 10.8 mph W17.4 kmh W 13.3 mph21.4 kmh 29.35 in993.9 mb 0.00 in0.0 mm 0.00 in0.0 mm 0.01 in0.3 mm
08:40 AM 55.9°F13.3°C 50.9°F10.5°C 83% 10.3 mph SW16.6 kmh SW 16.0 mph25.7 kmh 29.35 in993.9 mb 0.00 in0.0 mm 0.00 in0.0 mm 0.01 in0.3 mm
08:50 AM 56.1°F13.4°C 51.0°F10.6°C 83% 11.8 mph SSE19.0 kmh SSE 16.0 mph25.7 kmh 29.36 in994.2 mb 0.00 in0.0 mm 0.00 in0.0 mm 0.01 in0.3 mm
09:00 AM 56.5°F13.6°C 51.1°F10.6°C 82% 13.2 mph SW21.2 kmh SW 18.5 mph29.8 kmh 29.37 in994.6 mb 0.00 in0.0 mm 0.00 in0.0 mm 0.01 in0.3 mm
09:10 AM 56.7°F13.7°C 51.2°F10.7°C 82% 14.7 mph S23.7 kmh S 18.5 mph29.8 kmh 29.37 in994.6 mb 0.00 in0.0 mm 0.00 in0.0 mm 0.01 in0.3 mm
09:20 AM 59.2°F15.1°C 52.0°F11.1°C 77% 10.4 mph WSW16.7 kmh WSW 18.5 mph29.8 kmh 29.38 in994.9 mb 0.00 in0.0 mm 0.00 in0.0 mm 0.01 in0.3 mm
09:30 AM 59.2°F15.1°C 51.6°F10.9°C 76% 10.4 mph S16.7 kmh S 16.7 mph26.9 kmh 29.39 in995.3 mb 0.00 in0.0 mm 0.00 in0.0 mm 0.01 in0.3 mm
09:40 AM 57.9°F14.4°C 50.4°F10.2°C 76% 10.0 mph WSW16.1 kmh WSW 13.3 mph21.4 kmh 29.39 in995.3 mb 0.00 in0.0 mm 0.00 in0.0 mm 0.01 in0.3 mm
09:50 AM 57.2°F14.0°C 49.7°F9.8°C 76% 12.5 mph WNW20.1 kmh WNW 19.2 mph30.9 kmh 29.40 in995.6 mb 0.00 in0.0 mm 0.00 in0.0 mm 0.01 in0.3 mm
10:00 AM 58.1°F14.5°C 51.3°F10.7°C 78% 6.8 mph WSW10.9 kmh WSW 10.1 mph16.3 kmh 29.40 in995.6 mb 0.00 in0.0 mm 0.00 in0.0 mm 0.01 in0.3 mm
10:10 AM 58.8°F14.9°C 51.6°F10.9°C 77% 11.3 mph NE18.2 kmh NE 10.8 mph17.4 kmh 29.40 in995.6 mb 0.00 in0.0 mm 0.00 in0.0 mm 0.01 in0.3 mm
10:20 AM 60.4°F15.8°C 52.1°F11.2°C 74% 12.5 mph W20.1 kmh W 15.0 mph24.1 kmh 29.41 in995.9 mb 0.00 in0.0 mm 0.00 in0.0 mm 0.01 in0.3 mm
10:30 AM 60.8°F16.0°C 52.1°F11.2°C 73% 15.6 mph NE25.1 kmh NE 19.2 mph30.9 kmh 29.42 in996.3 mb 0.00 in0.0 mm 0.00 in0.0 mm 0.01 in0.3 mm
10:40 AM 61.0°F16.1°C 51.9°F11.1°C 72% 11.9 mph SW19.2 kmh SW 17.5 mph28.2 kmh 29.42 in996.3 mb 0.00 in0.0 mm 0.00 in0.0 mm 0.01 in0.3 mm
10:50 AM 62.4°F16.9°C 52.1°F11.2°C 69% 11.5 mph SW18.5 kmh SW 18.5 mph29.8 kmh 29.41 in995.9 mb 0.00 in0.0 mm 0.00 in0.0 mm 0.01 in0.3 mm
11:00 AM 61.9°F16.6°C 52.0°F11.1°C 70% 11.4 mph WSW18.3 kmh WSW 14.3 mph23.0 kmh 29.42 in996.3 mb 0.00 in0.0 mm 0.00 in0.0 mm 0.01 in0.3 mm
11:10 AM 61.7°F16.5°C 50.6°F10.3°C 67% 12.6 mph WSW20.3 kmh WSW 15.0 mph24.1 kmh 29.42 in996.3 mb 0.00 in0.0 mm 0.00 in0.0 mm 0.01 in0.3 mm
11:20 AM 60.3°F15.7°C 50.8°F10.4°C 71% 9.5 mph SW15.3 kmh SW 15.0 mph24.1 kmh 29.42 in996.3 mb 0.00 in0.0 mm 0.00 in0.0 mm 0.01 in0.3 mm
11:30 AM 59.7°F15.4°C 49.5°F9.7°C 69% 11.5 mph SW18.5 kmh SW 15.0 mph24.1 kmh 29.43 in996.6 mb 0.00 in0.0 mm 0.00 in0.0 mm 0.01 in0.3 mm
11:40 AM 62.1°F16.7°C 51.4°F10.8°C 68% 11.1 mph S17.9 kmh S 15.0 mph24.1 kmh 29.43 in996.6 mb 0.00 in0.0 mm 0.00 in0.0 mm 0.01 in0.3 mm
11:50 AM 63.1°F17.3°C 50.8°F10.4°C 64% 12.1 mph W19.5 kmh W 18.5 mph29.8 kmh 29.43 in996.6 mb 0.00 in0.0 mm 0.00 in0.0 mm 0.01 in0.3 mm
12:00 PM 63.1°F17.3°C 51.2°F10.7°C 65% 10.5 mph SW16.9 kmh SW 14.3 mph23.0 kmh 29.43 in996.6 mb 0.00 in0.0 mm 0.00 in0.0 mm 0.01 in0.3 mm
12:10 PM 61.9°F16.6°C 50.0°F10.0°C 65% 12.0 mph ESE19.3 kmh ESE 11.8 mph19.0 kmh 29.44 in997.0 mb 0.00 in0.0 mm 0.00 in0.0 mm 0.01 in0.3 mm
12:20 PM 61.2°F16.2°C 49.7°F9.8°C 66% 10.7 mph S17.2 kmh S 13.3 mph21.4 kmh 29.44 in997.0 mb 0.00 in0.0 mm 0.00 in0.0 mm 0.01 in0.3 mm
12:30 PM 61.3°F16.3°C 49.5°F9.7°C 65% 11.0 mph NW17.7 kmh NW 16.7 mph26.9 kmh 29.44 in997.0 mb 0.00 in0.0 mm 0.00 in0.0 mm 0.01 in0.3 mm
12:40 PM 60.8°F16.0°C 50.6°F10.3°C 69% 7.7 mph WSW12.4 kmh WSW 10.1 mph16.3 kmh 29.44 in997.0 mb 0.00 in0.0 mm 0.00 in0.0 mm 0.01 in0.3 mm
12:50 PM 56.8°F13.8°C 51.4°F10.8°C 82% 10.1 mph SSW16.3 kmh SSW 15.0 mph24.1 kmh 29.45 in997.3 mb 0.05 in1.3 mm 0.30 in7.6 mm 0.06 in1.5 mm
01:00 PM 56.1°F13.4°C 52.3°F11.3°C 87% 7.3 mph SSW11.7 kmh SSW 10.8 mph17.4 kmh 29.45 in997.3 mb 0.05 in1.3 mm 0.00 in0.0 mm 0.06 in1.5 mm
01:10 PM 58.3°F14.6°C 54.8°F12.7°C 88% 7.4 mph SW11.9 kmh SW 10.8 mph17.4 kmh 29.45 in997.3 mb 0.05 in1.3 mm 0.00 in0.0 mm 0.06 in1.5 mm
01:20 PM 59.9°F15.5°C 54.7°F12.6°C 83% 8.1 mph SW13.0 kmh SW 11.8 mph19.0 kmh 29.45 in997.3 mb 0.05 in1.3 mm 0.00 in0.0 mm 0.06 in1.5 mm
01:30 PM 61.0°F16.1°C 55.1°F12.8°C 81% 7.8 mph SW12.6 kmh SW 10.8 mph17.4 kmh 29.45 in997.3 mb 0.05 in1.3 mm 0.00 in0.0 mm 0.06 in1.5 mm
01:40 PM 61.7°F16.5°C 54.1°F12.3°C 76% 8.8 mph S14.2 kmh S 12.5 mph20.1 kmh 29.46 in997.6 mb 0.05 in1.3 mm 0.00 in0.0 mm 0.06 in1.5 mm
01:50 PM 62.1°F16.7°C 54.1°F12.3°C 75% 8.0 mph SW12.9 kmh SW 12.5 mph20.1 kmh 29.45 in997.3 mb 0.00 in0.0 mm 0.00 in0.0 mm 0.06 in1.5 mm
02:00 PM 62.2°F16.8°C 53.5°F11.9°C 73% 9.2 mph SW14.8 kmh SW 13.3 mph21.4 kmh 29.46 in997.6 mb 0.00 in0.0 mm 0.00 in0.0 mm 0.06 in1.5 mm
02:10 PM 61.9°F16.6°C 53.5°F11.9°C 74% 9.4 mph WNW15.1 kmh WNW 11.8 mph19.0 kmh 29.45 in997.3 mb 0.00 in0.0 mm 0.00 in0.0 mm 0.06 in1.5 mm
02:20 PM 60.1°F15.6°C 52.1°F11.2°C 75% 8.6 mph WSW13.8 kmh WSW 11.8 mph19.0 kmh 29.45 in997.3 mb 0.00 in0.0 mm 0.00 in0.0 mm 0.06 in1.5 mm
02:30 PM 60.3°F15.7°C 53.4°F11.9°C 78% 8.0 mph S12.9 kmh S 11.8 mph19.0 kmh 29.45 in997.3 mb 0.00 in0.0 mm 0.00 in0.0 mm 0.06 in1.5 mm
02:40 PM 61.9°F16.6°C 53.5°F11.9°C 74% 8.3 mph WSW13.4 kmh WSW 13.3 mph21.4 kmh 29.45 in997.3 mb 0.00 in0.0 mm 0.00 in0.0 mm 0.06 in1.5 mm
02:50 PM 62.8°F17.1°C 54.0°F12.2°C 73% 6.4 mph SW10.3 kmh SW 8.4 mph13.5 kmh 29.45 in997.3 mb 0.00 in0.0 mm 0.00 in0.0 mm 0.06 in1.5 mm
03:00 PM 62.6°F17.0°C 53.5°F11.9°C 72% 8.6 mph W13.8 kmh W 15.0 mph24.1 kmh 29.45 in997.3 mb 0.00 in0.0 mm 0.00 in0.0 mm 0.06 in1.5 mm
03:10 PM 61.9°F16.6°C 52.8°F11.6°C 72% 7.8 mph SW12.6 kmh SW 10.8 mph17.4 kmh 29.45 in997.3 mb 0.00 in0.0 mm 0.00 in0.0 mm 0.06 in1.5 mm
03:20 PM 61.7°F16.5°C 52.6°F11.4°C 72% 8.7 mph WSW14.0 kmh WSW 15.0 mph24.1 kmh 29.45 in997.3 mb 0.00 in0.0 mm 0.00 in0.0 mm 0.06 in1.5 mm
03:30 PM 61.7°F16.5°C 51.4°F10.8°C 69% 10.3 mph SW16.6 kmh SW 16.0 mph25.7 kmh 29.45 in997.3 mb 0.00 in0.0 mm 0.00 in0.0 mm 0.06 in1.5 mm
03:40 PM 60.8°F16.0°C 49.4°F9.7°C 66% 9.1 mph SW14.6 kmh SW 11.8 mph19.0 kmh 29.45 in997.3 mb 0.00 in0.0 mm 0.00 in0.0 mm 0.06 in1.5 mm
03:50 PM 61.3°F16.3°C 50.3°F10.2°C 67% 7.6 mph NW12.2 kmh NW 11.8 mph19.0 kmh 29.45 in997.3 mb 0.00 in0.0 mm 0.00 in0.0 mm 0.06 in1.5 mm
04:00 PM 60.1°F15.6°C 50.3°F10.2°C 70% 6.6 mph WSW10.6 kmh WSW 9.1 mph14.6 kmh 29.45 in997.3 mb 0.00 in0.0 mm 0.00 in0.0 mm 0.06 in1.5 mm
04:10 PM 59.7°F15.4°C 51.1°F10.6°C 73% 5.8 mph W9.3 kmh W 6.6 mph10.6 kmh 29.45 in997.3 mb 0.00 in0.0 mm 0.00 in0.0 mm 0.06 in1.5 mm
04:20 PM 59.9°F15.5°C 51.6°F10.9°C 74% 6.0 mph N9.7 kmh N 8.4 mph13.5 kmh 29.45 in997.3 mb 0.00 in0.0 mm 0.00 in0.0 mm 0.06 in1.5 mm
04:30 PM 59.4°F15.2°C 51.1°F10.6°C 74% 4.9 mph WSW7.9 kmh WSW 6.6 mph10.6 kmh 29.45 in997.3 mb 0.00 in0.0 mm 0.00 in0.0 mm 0.06 in1.5 mm
04:40 PM 59.0°F15.0°C 50.7°F10.4°C 74% 4.5 mph WSW7.2 kmh WSW 5.9 mph9.5 kmh 29.45 in997.3 mb 0.00 in0.0 mm 0.00 in0.0 mm 0.06 in1.5 mm
04:50 PM 58.8°F14.9°C 50.2°F10.1°C 73% 5.6 mph SW9.0 kmh SW 7.6 mph12.2 kmh 29.45 in997.3 mb 0.00 in0.0 mm 0.00 in0.0 mm 0.06 in1.5 mm
05:00 PM 58.5°F14.7°C 49.5°F9.7°C 72% 5.5 mph W8.9 kmh W 7.6 mph12.2 kmh 29.45 in997.3 mb 0.00 in0.0 mm 0.00 in0.0 mm 0.06 in1.5 mm
05:10 PM 58.5°F14.7°C 49.5°F9.7°C 72% 6.5 mph SSW10.5 kmh SSW 9.1 mph14.6 kmh 29.45 in997.3 mb 0.00 in0.0 mm 0.00 in0.0 mm 0.06 in1.5 mm
05:20 PM 58.5°F14.7°C 49.1°F9.5°C 71% 8.1 mph WNW13.0 kmh WNW 10.8 mph17.4 kmh 29.46 in997.6 mb 0.00 in0.0 mm 0.00 in0.0 mm 0.06 in1.5 mm
05:30 PM 58.3°F14.6°C 48.9°F9.4°C 71% 6.0 mph WSW9.7 kmh WSW 8.4 mph13.5 kmh 29.45 in997.3 mb 0.00 in0.0 mm 0.00 in0.0 mm 0.06 in1.5 mm
05:40 PM 57.7°F14.3°C 48.8°F9.3°C 72% 5.6 mph WSW9.0 kmh WSW 9.1 mph14.6 kmh 29.46 in997.6 mb 0.00 in0.0 mm 0.00 in0.0 mm 0.06 in1.5 mm
05:50 PM 57.4°F14.1°C 48.8°F9.3°C 73% 4.2 mph SW6.8 kmh SW 4.9 mph7.9 kmh 29.46 in997.6 mb 0.00 in0.0 mm 0.00 in0.0 mm 0.06 in1.5 mm
06:00 PM 56.8°F13.8°C 47.9°F8.8°C 72% 6.7 mph SW10.8 kmh SW 9.1 mph14.6 kmh 29.46 in997.6 mb 0.00 in0.0 mm 0.00 in0.0 mm 0.06 in1.5 mm
06:10 PM 56.1°F13.4°C 47.6°F8.7°C 73% 4.5 mph SW7.2 kmh SW 5.9 mph9.5 kmh 29.46 in997.6 mb 0.00 in0.0 mm 0.00 in0.0 mm 0.06 in1.5 mm
06:20 PM 55.4°F13.0°C 47.6°F8.7°C 75% 4.5 mph SE7.2 kmh SE 6.6 mph10.6 kmh 29.47 in998.0 mb 0.00 in0.0 mm 0.00 in0.0 mm 0.06 in1.5 mm
06:30 PM 54.7°F12.6°C 46.9°F8.3°C 75% 4.5 mph SW7.2 kmh SW 4.9 mph7.9 kmh 29.46 in997.6 mb 0.00 in0.0 mm 0.00 in0.0 mm 0.06 in1.5 mm
06:40 PM 54.3°F12.4°C 48.3°F9.1°C 80% 4.8 mph SW7.7 kmh SW 5.9 mph9.5 kmh 29.46 in997.6 mb 0.00 in0.0 mm 0.00 in0.0 mm 0.06 in1.5 mm
06:50 PM 54.0°F12.2°C 48.3°F9.1°C 81% 4.7 mph SW7.6 kmh SW 5.9 mph9.5 kmh 29.47 in998.0 mb 0.00 in0.0 mm 0.00 in0.0 mm 0.06 in1.5 mm
07:00 PM 53.6°F12.0°C 48.2°F9.0°C 82% 4.3 mph WSW6.9 kmh WSW 7.6 mph12.2 kmh 29.47 in998.0 mb 0.00 in0.0 mm 0.00 in0.0 mm 0.06 in1.5 mm
07:10 PM 52.9°F11.6°C 47.9°F8.8°C 83% 2.9 mph SSE4.7 kmh SSE 3.4 mph5.5 kmh 29.47 in998.0 mb 0.00 in0.0 mm 0.00 in0.0 mm 0.06 in1.5 mm
07:20 PM 52.3°F11.3°C 47.7°F8.7°C 84% 3.4 mph SSW5.5 kmh SSW 5.9 mph9.5 kmh 29.48 in998.3 mb 0.00 in0.0 mm 0.00 in0.0 mm 0.06 in1.5 mm
07:30 PM 52.0°F11.1°C 47.6°F8.7°C 85% 4.5 mph SW7.2 kmh SW 6.6 mph10.6 kmh 29.48 in998.3 mb 0.00 in0.0 mm 0.00 in0.0 mm 0.06 in1.5 mm
07:40 PM 51.6°F10.9°C 47.6°F8.7°C 86% 3.7 mph S6.0 kmh S 4.9 mph7.9 kmh 29.49 in998.6 mb 0.00 in0.0 mm 0.00 in0.0 mm 0.06 in1.5 mm
07:50 PM 51.3°F10.7°C 47.5°F8.6°C 87% 2.6 mph SW4.2 kmh SW 3.4 mph5.5 kmh 29.49 in998.6 mb 0.00 in0.0 mm 0.00 in0.0 mm 0.06 in1.5 mm
08:00 PM 50.7°F10.4°C 47.6°F8.7°C 89% 2.1 mph SW3.4 kmh SW 3.4 mph5.5 kmh 29.49 in998.6 mb 0.00 in0.0 mm 0.00 in0.0 mm 0.06 in1.5 mm
08:10 PM 50.4°F10.2°C 47.8°F8.8°C 91% 2.9 mph N4.7 kmh N 3.4 mph5.5 kmh 29.49 in998.6 mb 0.00 in0.0 mm 0.00 in0.0 mm 0.06 in1.5 mm
08:20 PM 50.2°F10.1°C 48.0°F8.9°C 92% 3.1 mph SW5.0 kmh SW 3.4 mph5.5 kmh 29.50 in999.0 mb 0.00 in0.0 mm 0.00 in0.0 mm 0.06 in1.5 mm
08:30 PM 50.0°F10.0°C 47.8°F8.8°C 92% 3.3 mph SSW5.3 kmh SSW 4.2 mph6.8 kmh 29.49 in998.6 mb 0.00 in0.0 mm 0.00 in0.0 mm 0.06 in1.5 mm
08:40 PM 50.0°F10.0°C 47.8°F8.8°C 92% 3.7 mph WSW6.0 kmh WSW 5.9 mph9.5 kmh 29.50 in999.0 mb 0.00 in0.0 mm 0.00 in0.0 mm 0.06 in1.5 mm
08:50 PM 49.8°F9.9°C 47.3°F8.5°C 91% 4.8 mph WSW7.7 kmh WSW 8.4 mph13.5 kmh 29.50 in999.0 mb 0.00 in0.0 mm 0.00 in0.0 mm 0.06 in1.5 mm
09:00 PM 49.6°F9.8°C 47.4°F8.6°C 92% 4.5 mph SW7.2 kmh SW 5.9 mph9.5 kmh 29.50 in999.0 mb 0.00 in0.0 mm 0.00 in0.0 mm 0.06 in1.5 mm
09:10 PM 49.5°F9.7°C 47.2°F8.4°C 92% 4.0 mph SW6.4 kmh SW 4.9 mph7.9 kmh 29.50 in999.0 mb 0.00 in0.0 mm 0.00 in0.0 mm 0.06 in1.5 mm
09:20 PM 49.5°F9.7°C 46.9°F8.3°C 91% 3.6 mph S5.8 kmh S 4.9 mph7.9 kmh 29.50 in999.0 mb 0.00 in0.0 mm 0.00 in0.0 mm 0.06 in1.5 mm
09:30 PM 49.5°F9.7°C 46.9°F8.3°C 91% 3.2 mph SW5.1 kmh SW 5.9 mph9.5 kmh 29.50 in999.0 mb 0.00 in0.0 mm 0.00 in0.0 mm 0.06 in1.5 mm
09:40 PM 49.3°F9.6°C 46.8°F8.2°C 91% 3.5 mph WSW5.6 kmh WSW 4.9 mph7.9 kmh 29.50 in999.0 mb 0.00 in0.0 mm 0.00 in0.0 mm 0.06 in1.5 mm
09:50 PM 49.1°F9.5°C 46.9°F8.3°C 92% 3.9 mph SW6.3 kmh SW 4.9 mph7.9 kmh 29.50 in999.0 mb 0.00 in0.0 mm 0.00 in0.0 mm 0.06 in1.5 mm
10:00 PM 48.7°F9.3°C 46.8°F8.2°C 93% 4.4 mph WSW7.1 kmh WSW 7.6 mph12.2 kmh 29.50 in999.0 mb 0.00 in0.0 mm 0.00 in0.0 mm 0.06 in1.5 mm
10:10 PM 48.6°F9.2°C 46.6°F8.1°C 93% 3.6 mph SW5.8 kmh SW 4.2 mph6.8 kmh 29.50 in999.0 mb 0.00 in0.0 mm 0.00 in0.0 mm 0.06 in1.5 mm
10:20 PM 48.4°F9.1°C 46.7°F8.2°C 94% 3.7 mph S6.0 kmh S 4.9 mph7.9 kmh 29.50 in999.0 mb 0.00 in0.0 mm 0.00 in0.0 mm 0.06 in1.5 mm
10:30 PM 48.2°F9.0°C 46.6°F8.1°C 94% 3.7 mph SW6.0 kmh SW 4.9 mph7.9 kmh 29.50 in999.0 mb 0.00 in0.0 mm 0.00 in0.0 mm 0.06 in1.5 mm
10:40 PM 48.0°F8.9°C 46.7°F8.2°C 95% 3.2 mph SSW5.1 kmh SSW 4.9 mph7.9 kmh 29.50 in999.0 mb 0.00 in0.0 mm 0.00 in0.0 mm 0.06 in1.5 mm
10:50 PM 47.8°F8.8°C 46.5°F8.1°C 95% 3.1 mph S5.0 kmh S 4.2 mph6.8 kmh 29.50 in999.0 mb 0.00 in0.0 mm 0.00 in0.0 mm 0.06 in1.5 mm
11:00 PM 47.5°F8.6°C 46.4°F8.0°C 96% 3.4 mph SW5.5 kmh SW 4.2 mph6.8 kmh 29.50 in999.0 mb 0.00 in0.0 mm 0.00 in0.0 mm 0.06 in1.5 mm
11:10 PM 47.1°F8.4°C 46.0°F7.8°C 96% 2.3 mph SSW3.7 kmh SSW 2.5 mph4.0 kmh 29.50 in999.0 mb 0.00 in0.0 mm 0.00 in0.0 mm 0.06 in1.5 mm
11:20 PM 46.9°F8.3°C 46.1°F7.8°C 97% 2.9 mph W4.7 kmh W 4.9 mph7.9 kmh 29.50 in999.0 mb 0.00 in0.0 mm 0.00 in0.0 mm 0.06 in1.5 mm
11:30 PM 46.8°F8.2°C 46.2°F7.9°C 98% 3.9 mph WSW6.3 kmh WSW 4.9 mph7.9 kmh 29.50 in999.0 mb 0.00 in0.0 mm 0.00 in0.0 mm 0.06 in1.5 mm
11:40 PM 46.9°F8.3°C 46.4°F8.0°C 98% 4.3 mph SSW6.9 kmh SSW 4.9 mph7.9 kmh 29.50 in999.0 mb 0.00 in0.0 mm 0.00 in0.0 mm 0.06 in1.5 mm
11:50 PM 46.9°F8.3°C 46.4°F8.0°C 98% 4.1 mph SSW6.6 kmh SSW 5.9 mph9.5 kmh 29.50 in999.0 mb 0.00 in0.0 mm 0.00 in0.0 mm 0.06 in1.5 mm